Weather reports worldwide

Advertisment
Itsaso, Spain (8037): temperature & dewpoint: 16.02.2019 22:00:00 - 22.02.2019 22:00:00 (CET)Itsaso, Spain (8037): wind speed & gusts: 16.02.2019 22:00:00 - 22.02.2019 22:00:00 (CET)Itsaso, Spain (8037): wind direction: 16.02.2019 22:00:00 - 22.02.2019 22:00:00 (CET)Itsaso, Spain (8037): reduced air pressure: 16.02.2019 22:00:00 - 22.02.2019 22:00:00 (CET)Itsaso, Spain (8037): precipitation: 16.02.2019 22:00:00 - 22.02.2019 22:00:00 (CET)
Date & Time tt [°C] td [°C] ff [km/h] ff [kn] fx [km/h] fx [kn] dd ppp [hPa] rr [mm]
22.02.2019 22:00:00 8,0 0,0 0 0 4 2 SW 1029,0 0,0
22.02.2019 21:00:00 8,8 -1,0 0 0 7 4 W 1028,8 0,0
22.02.2019 20:00:00 10,0 -1,7 1 0 11 6 WSW 1028,6 0,0
22.02.2019 19:00:00 12,8 -2,0 1 1 7 4 SW 1028,1 -
22.02.2019 18:00:00 16,3 -1,7 1 0 9 5 WSW 1026,8 0,0
22.02.2019 17:00:00 17,7 -1,4 5 3 14 8 WNW 1026,6 0,0
22.02.2019 16:00:00 19,3 -0,7 8 4 14 8 WNW 1026,2 0,0
22.02.2019 15:00:00 20,0 -0,7 0 0 12 6 W 1026,3 0,0
22.02.2019 14:00:00 18,3 -1,0 6 3 12 6 ENE 1027,0 0,0
22.02.2019 13:00:00 17,9 2,3 3 2 10 6 E 1028,1 -
22.02.2019 12:00:00 14,6 3,8 4 2 8 5 ENE 1029,4 0,0
22.02.2019 11:00:00 12,2 5,6 0 0 2 1 N 1030,1 0,0
22.02.2019 10:00:00 10,4 4,5 0 0 2 1 E 1030,9 0,0
22.02.2019 09:00:00 6,4 2,5 0 0 1 1 ESE 1031,5 0,0
22.02.2019 08:00:00 5,6 1,9 0 0 1 0 SW 1031,4 0,0
22.02.2019 07:00:00 5,4 1,7 0 0 7 4 SE 1031,0 -
22.02.2019 06:00:00 6,1 1,9 1 1 6 4 SW 1030,7 0,0
22.02.2019 05:00:00 6,0 1,7 0 0 3 1 WSW 1030,8 0,0
22.02.2019 04:00:00 6,6 2,3 0 0 7 4 SW 1030,6 0,0
22.02.2019 03:00:00 6,7 1,9 0 0 4 2 SW 1030,9 0,0
22.02.2019 02:00:00 7,9 2,5 1 1 5 3 SW 1030,6 0,0
22.02.2019 01:00:00 8,0 2,1 0 0 1 1 SW 1030,4 -
22.02.2019 00:00:00 9,2 2,1 0 0 1 1 S 1029,9 0,0
21.02.2019 23:00:00 9,4 2,3 0 0 2 1 SW 1029,7 0,0
21.02.2019 22:00:00 9,2 1,9 1 1 5 3 SW 1029,3 0,0
21.02.2019 21:00:00 10,1 1,3 0 0 4 2 S 1028,6 0,0
21.02.2019 20:00:00 11,3 1,3 0 0 3 1 N 1027,9 0,0
21.02.2019 19:00:00 12,7 1,7 0 0 9 5 SSE 1026,8 -
21.02.2019 18:00:00 14,6 1,9 3 2 15 8 SE 1025,6 0,0
21.02.2019 17:00:00 15,9 1,3 3 1 14 8 SE 1025,1 0,0
21.02.2019 16:00:00 17,1 1,5 2 1 13 7 ESE 1024,7 0,0
21.02.2019 15:00:00 17,3 1,7 5 3 17 9 ESE 1024,6 0,0
21.02.2019 14:00:00 16,1 3,6 7 4 22 12 ESE 1024,8 0,0
21.02.2019 13:00:00 15,1 3,6 11 6 22 12 ESE 1025,4 -
21.02.2019 12:00:00 13,5 3,8 10 5 20 11 E 1025,9 0,0
21.02.2019 11:00:00 11,9 3,9 5 3 14 7 ESE 1026,5 0,0
21.02.2019 10:00:00 8,0 4,3 0 0 3 1 W 1027,1 0,0
21.02.2019 09:00:00 5,5 2,7 0 0 7 4 W 1027,3 0,0
21.02.2019 08:00:00 6,0 2,7 2 1 5 3 ESE 1026,3 0,0
21.02.2019 07:00:00 5,0 2,3 0 0 3 2 E 1026,2 -
21.02.2019 06:00:00 5,4 2,5 1 1 5 3 ESE 1026,0 0,0
21.02.2019 05:00:00 5,3 2,7 0 0 5 3 SW 1025,5 0,0
21.02.2019 04:00:00 5,6 2,7 0 0 7 4 SW 1025,8 0,0
21.02.2019 03:00:00 5,9 2,7 0 0 4 2 WSW 1025,6 0,0
21.02.2019 02:00:00 6,4 2,9 0 0 1 1 SSE 1025,5 0,0
21.02.2019 01:00:00 6,4 2,7 0 0 1 1 S 1025,3 -
21.02.2019 00:00:00 7,0 2,9 0 0 1 1 SSE 1024,7 0,0
20.02.2019 23:00:00 7,5 3,4 0 0 2 1 SSE 1024,5 0,0
20.02.2019 22:00:00 7,7 3,0 0 0 5 3 SW 1024,3 0,0
20.02.2019 21:00:00 8,5 2,3 0 0 6 4 WSW 1023,7 0,0
20.02.2019 20:00:00 10,1 2,5 1 1 7 4 SW 1022,9 0,0
20.02.2019 19:00:00 12,0 1,7 1 0 7 4 S 1021,9 -
20.02.2019 18:00:00 13,4 2,1 4 2 21 12 WNW 1021,2 0,0
20.02.2019 17:00:00 14,8 2,3 10 5 23 12 WNW 1020,5 0,0
20.02.2019 16:00:00 15,7 2,1 9 5 21 11 WNW 1020,3 0,0
20.02.2019 15:00:00 15,6 2,7 1 0 16 9 SSW 1020,3 0,0
20.02.2019 14:00:00 14,1 3,2 8 4 17 9 E 1021,0 0,0
20.02.2019 13:00:00 13,4 3,8 8 4 19 11 E 1021,6 -
20.02.2019 12:00:00 11,8 3,2 7 4 16 8 E 1022,2 0,0
20.02.2019 11:00:00 10,5 3,8 4 2 17 9 E 1022,3 0,0
20.02.2019 10:00:00 8,4 3,4 6 4 14 8 E 1022,4 0,0
20.02.2019 09:00:00 6,0 3,2 0 0 5 3 NE 1022,3 0,0
20.02.2019 08:00:00 5,3 2,9 0 0 3 2 SSW 1021,6 0,0
20.02.2019 07:00:00 5,1 2,7 0 0 5 3 SE 1021,1 -
20.02.2019 06:00:00 5,3 2,9 0 0 3 1 W 1020,8 0,0
20.02.2019 05:00:00 5,5 2,9 0 0 1 1 ENE 1020,6 0,0
20.02.2019 04:00:00 5,5 2,9 0 0 4 2 WSW 1020,7 0,0
20.02.2019 03:00:00 5,7 3,2 0 0 3 1 SSE 1021,0 0,0
20.02.2019 02:00:00 5,7 3,8 0 0 1 0 WSW 1021,1 0,0
20.02.2019 01:00:00 5,8 3,9 0 0 1 1 W 1020,9 -
20.02.2019 00:00:00 5,4 5,0 0 0 1 1 SW 1021,1 0,0
19.02.2019 23:00:00 4,9 4,5 0 0 5 3 SW 1020,9 0,0
19.02.2019 22:00:00 5,7 5,3 0 0 3 2 SW 1020,6 0,0
19.02.2019 21:00:00 5,9 5,1 0 0 1 1 NW 1020,2 0,0
19.02.2019 20:00:00 6,9 5,5 0 0 4 2 WSW 1019,8 0,0
19.02.2019 19:00:00 8,3 5,3 1 0 6 3 N 1018,9 -
19.02.2019 18:00:00 10,4 4,3 4 2 18 10 WNW 1018,1 0,0
19.02.2019 17:00:00 11,4 3,4 2 1 10 5 NW 1018,1 0,0
19.02.2019 16:00:00 12,3 3,6 1 1 5 3 W 1018,2 0,0
19.02.2019 15:00:00 11,8 2,9 1 0 9 5 N 1018,8 0,0
19.02.2019 14:00:00 11,2 3,4 6 3 16 9 NW 1019,5 0,0
19.02.2019 13:00:00 8,9 3,8 11 6 20 11 WNW 1020,8 -
19.02.2019 12:00:00 7,8 4,8 10 6 18 10 W 1021,6 0,0
19.02.2019 11:00:00 7,0 5,0 4 2 10 6 W 1021,8 0,0
19.02.2019 10:00:00 6,3 5,5 6 4 13 7 W 1021,9 0,0
19.02.2019 09:00:00 5,7 5,6 4 2 11 6 W 1021,8 0,0
19.02.2019 08:00:00 5,4 5,3 4 2 8 4 W 1021,1 0,0
19.02.2019 07:00:00 5,3 5,1 3 2 9 5 W 1021,0 -
19.02.2019 06:00:00 5,4 5,3 6 3 16 8 W 1020,9 0,0
19.02.2019 05:00:00 5,4 5,3 6 4 18 10 WNW 1021,2 0,0
19.02.2019 04:00:00 5,5 5,3 8 5 27 14 WNW 1021,2 0,0
19.02.2019 03:00:00 5,7 5,6 11 6 23 12 WNW 1021,3 0,0
19.02.2019 02:00:00 5,9 5,3 9 5 19 10 W 1021,3 0,0
19.02.2019 01:00:00 5,0 3,9 0 0 6 4 SSW 1021,4 -
19.02.2019 00:00:00 5,1 3,8 0 0 4 2 WSW 1021,3 0,0
18.02.2019 23:00:00 5,7 4,5 0 0 7 4 WSW 1021,0 0,0
18.02.2019 22:00:00 6,4 4,3 3 1 18 10 W 1020,6 0,0
18.02.2019 21:00:00 7,3 3,4 11 6 24 13 W 1019,7 0,0
18.02.2019 20:00:00 8,5 1,3 12 7 26 14 WNW 1018,7 0,0
18.02.2019 19:00:00 10,2 -3,3 1 1 8 5 WSW 1017,5 -
18.02.2019 18:00:00 11,9 -2,0 1 0 11 6 S 1016,6 0,0
18.02.2019 17:00:00 13,4 -1,4 4 2 16 9 E 1016,0 0,0
18.02.2019 16:00:00 13,8 -1,4 8 5 25 13 ESE 1015,9 0,0
18.02.2019 15:00:00 13,9 -1,4 8 5 26 14 E 1016,1 0,0
18.02.2019 14:00:00 14,4 -1,0 8 4 32 17 ESE 1016,7 0,0
18.02.2019 13:00:00 13,7 -0,7 8 4 27 15 ESE 1017,3 -
18.02.2019 12:00:00 12,9 -0,7 10 5 27 15 E 1017,9 0,0
18.02.2019 11:00:00 11,5 -1,7 9 5 22 12 E 1018,4 0,0
18.02.2019 10:00:00 9,3 -2,5 9 5 17 9 E 1019,0 0,0
18.02.2019 09:00:00 7,4 -3,6 6 4 19 10 E 1019,2 0,0
18.02.2019 08:00:00 6,9 -4,2 3 2 22 12 E 1018,8 0,0
18.02.2019 07:00:00 7,4 -4,2 8 4 26 14 ESE 1018,7 -
18.02.2019 06:00:00 7,7 -3,9 8 4 27 15 SE 1018,5 0,0
18.02.2019 05:00:00 7,9 -3,6 10 5 25 14 SE 1018,1 0,0
18.02.2019 04:00:00 8,4 -3,3 7 4 21 12 ESE 1018,6 0,0
18.02.2019 03:00:00 8,4 -2,5 8 4 22 12 E 1018,2 0,0
18.02.2019 02:00:00 9,3 -3,0 9 5 21 11 E 1017,7 0,0
18.02.2019 01:00:00 10,2 -3,9 8 4 42 23 ESE 1017,5 -
18.02.2019 00:00:00 11,0 -3,9 16 9 49 27 ESE 1017,7 0,0
17.02.2019 23:00:00 10,9 -4,8 15 8 44 24 ESE 1017,7 0,0
17.02.2019 22:00:00 11,3 -5,4 9 5 40 22 ESE 1017,9 0,0
17.02.2019 21:00:00 11,7 -5,7 15 8 39 21 ESE 1017,7 0,0
17.02.2019 20:00:00 11,1 -6,4 7 4 19 10 ESE 1017,8 0,0
17.02.2019 19:00:00 11,2 -6,0 3 1 13 7 ESE 1017,7 -
17.02.2019 18:00:00 13,0 -6,0 5 3 20 11 SE 1017,2 0,0
17.02.2019 17:00:00 14,3 -6,0 5 3 30 16 SE 1016,9 0,0
17.02.2019 16:00:00 15,4 -6,4 10 6 34 19 SE 1017,1 0,0
17.02.2019 15:00:00 15,9 -5,7 9 5 31 17 SE 1017,8 0,0
17.02.2019 14:00:00 16,3 -6,0 7 4 35 19 SE 1018,7 0,0
17.02.2019 13:00:00 15,3 -6,4 11 6 29 16 SE 1019,9 -
17.02.2019 12:00:00 14,3 -6,7 9 5 35 19 ESE 1020,7 0,0
17.02.2019 11:00:00 13,2 -7,5 11 6 31 17 ESE 1021,0 0,0
17.02.2019 10:00:00 11,5 -7,5 7 4 30 16 ESE 1021,6 0,0
17.02.2019 09:00:00 9,4 -9,0 14 8 37 20 ESE 1022,0 0,0
17.02.2019 08:00:00 8,9 -9,0 11 6 29 15 ESE 1022,0 0,0
17.02.2019 07:00:00 8,9 -8,2 8 4 22 12 ESE 1021,9 -
17.02.2019 06:00:00 8,7 -7,8 5 3 24 13 ESE 1021,8 0,0
17.02.2019 05:00:00 9,0 -7,8 6 3 25 14 ESE 1021,5 0,0
17.02.2019 04:00:00 10,0 -6,7 13 7 37 20 ESE 1021,3 0,0
17.02.2019 03:00:00 9,2 -6,7 2 1 29 16 ESE 1022,1 0,0
17.02.2019 02:00:00 9,7 -6,4 1 0 28 15 SSE 1022,4 0,0
17.02.2019 01:00:00 10,6 -5,7 3 2 35 19 E 1021,9 -
17.02.2019 00:00:00 11,1 -5,4 9 5 26 14 ESE 1022,0 0,0
16.02.2019 23:00:00 10,8 -4,8 5 3 32 18 ESE 1022,2 0,0
16.02.2019 22:00:00 11,5 -4,2 12 7 48 26 SE 1021,9 0,0

tt = temperature
td = dewpoint
ff = wind speed
fx = gusts
dd = wind direction
ppp = reduced air pressure
rr = precipitation

Next stations